createdAt,value
2023-02-08T00:00:35.655Z,12.90
2023-02-08T00:03:02.258Z,11.60
2023-02-08T00:05:29.098Z,9.40
2023-02-08T00:07:55.800Z,10.20
2023-02-08T00:10:22.401Z,11.20
2023-02-08T00:12:49.285Z,9.80
2023-02-08T00:17:42.529Z,7.20
2023-02-08T00:20:10.040Z,7.00
2023-02-08T00:22:38.198Z,6.60
2023-02-08T00:25:06.698Z,7.20
2023-02-08T00:27:33.454Z,4.70
2023-02-08T00:30:00.245Z,7.70
2023-02-08T00:32:26.905Z,6.20
2023-02-08T00:34:53.561Z,4.90
2023-02-08T00:37:20.269Z,5.70
2023-02-08T00:39:48.680Z,5.40
2023-02-08T00:42:16.042Z,5.30
2023-02-08T00:44:42.689Z,4.10
2023-02-08T00:47:09.312Z,7.20
2023-02-08T00:49:36.538Z,7.40
2023-02-08T00:52:03.273Z,7.30
2023-02-08T00:54:29.878Z,6.90
2023-02-08T00:56:56.559Z,8.10
2023-02-08T00:59:24.669Z,8.80
2023-02-08T01:01:51.305Z,9.00
2023-02-08T01:04:17.919Z,11.70
2023-02-08T01:06:44.599Z,8.90
2023-02-08T01:09:11.548Z,8.40
2023-02-08T01:11:38.280Z,6.90
2023-02-08T01:14:05.951Z,4.90
2023-02-08T01:16:34.548Z,8.70
2023-02-08T01:19:03.021Z,5.10
2023-02-08T01:21:33.716Z,5.40
2023-02-08T01:24:00.639Z,8.00
2023-02-08T01:26:30.546Z,7.20
2023-02-08T01:28:57.621Z,9.80
2023-02-08T01:31:29.047Z,7.40
2023-02-08T01:33:57.692Z,8.60
2023-02-08T01:36:25.572Z,8.80
2023-02-08T01:38:52.607Z,7.70
2023-02-08T01:41:23.875Z,6.50
2023-02-08T01:46:38.794Z,8.70
2023-02-08T01:49:22.922Z,10.00
2023-02-08T01:51:57.164Z,11.60
2023-02-08T01:54:27.816Z,9.60
2023-02-08T01:56:54.626Z,11.90
2023-02-08T02:01:52.329Z,8.90
2023-02-08T02:04:21.081Z,9.50
2023-02-08T02:06:51.282Z,11.20
2023-02-08T02:09:38.280Z,9.10
2023-02-08T02:12:07.876Z,9.50
2023-02-08T02:14:35.825Z,9.50
2023-02-08T02:17:03.223Z,9.70
2023-02-08T02:19:35.791Z,10.10
2023-02-08T02:22:33.857Z,9.50
2023-02-08T02:25:03.523Z,8.80
2023-02-08T02:28:09.000Z,8.90
2023-02-08T02:31:07.951Z,9.30
2023-02-08T02:33:56.860Z,9.10
2023-02-08T02:36:33.233Z,10.70
2023-02-08T02:39:26.785Z,9.20
2023-02-08T02:42:19.499Z,9.10
2023-02-08T02:45:11.332Z,10.70
2023-02-08T02:48:00.955Z,7.00
2023-02-08T02:50:53.955Z,11.80
2023-02-08T02:53:23.685Z,7.80
2023-02-08T02:55:58.329Z,8.70
2023-02-08T02:58:26.863Z,10.10
2023-02-08T03:00:58.738Z,9.70
2023-02-08T03:03:28.548Z,9.20
2023-02-08T03:06:01.314Z,9.30
2023-02-08T03:08:38.349Z,9.90
2023-02-08T03:11:16.814Z,8.80
2023-02-08T03:14:05.062Z,10.00
2023-02-08T03:16:37.894Z,10.10
2023-02-08T03:21:59.026Z,9.80
2023-02-08T03:25:03.755Z,11.70
2023-02-08T03:28:03.467Z,10.00
2023-02-08T03:30:30.110Z,8.60
2023-02-08T03:33:09.277Z,9.00
2023-02-08T03:36:03.603Z,11.60
2023-02-08T03:38:36.552Z,11.50
2023-02-08T03:41:06.467Z,10.10
2023-02-08T03:43:42.490Z,10.60
2023-02-08T03:46:38.504Z,11.70
2023-02-08T03:49:11.652Z,9.40
2023-02-08T03:51:39.629Z,9.50
2023-02-08T03:54:11.099Z,8.50
2023-02-08T03:56:51.086Z,7.90
2023-02-08T03:59:24.983Z,11.40
2023-02-08T04:02:13.819Z,10.10
2023-02-08T04:04:47.507Z,7.30
2023-02-08T04:07:14.357Z,8.90
2023-02-08T04:12:07.876Z,7.40
2023-02-08T04:17:01.387Z,8.60
2023-02-08T04:19:28.070Z,9.70
2023-02-08T04:21:54.744Z,11.10
2023-02-08T04:24:21.424Z,8.60
2023-02-08T04:26:48.235Z,7.60
2023-02-08T04:29:14.930Z,6.60
2023-02-08T04:31:41.702Z,9.40
2023-02-08T04:34:08.530Z,8.00
2023-02-08T04:36:35.251Z,6.10
2023-02-08T04:39:01.927Z,7.40
2023-02-08T04:41:28.569Z,7.80
2023-02-08T04:43:55.222Z,7.40
2023-02-08T04:46:22.280Z,5.90
2023-02-08T04:48:49.653Z,7.90
2023-02-08T04:51:16.236Z,8.00
2023-02-08T04:53:43.104Z,9.00
2023-02-08T04:58:36.900Z,12.30
2023-02-08T05:01:10.869Z,8.50
2023-02-08T05:03:37.627Z,7.90
2023-02-08T05:06:04.500Z,7.60
2023-02-08T05:10:57.773Z,6.80
2023-02-08T05:13:24.635Z,8.00
2023-02-08T05:18:17.873Z,6.80
2023-02-08T05:20:45.221Z,9.20
2023-02-08T05:23:12.085Z,7.80
2023-02-08T05:28:06.426Z,9.60
2023-02-08T05:32:59.825Z,5.60
2023-02-08T05:35:26.426Z,7.20
2023-02-08T05:37:53.027Z,10.30
2023-02-08T05:40:19.908Z,9.90
2023-02-08T05:45:14.820Z,9.00
2023-02-08T05:47:42.160Z,7.50
2023-02-08T05:50:09.621Z,8.10
2023-02-08T05:52:36.265Z,6.40
2023-02-08T05:55:03.022Z,7.20
2023-02-08T05:57:31.607Z,9.60
2023-02-08T05:59:59.392Z,8.00
2023-02-08T06:02:26.082Z,7.40
2023-02-08T06:04:52.686Z,8.20
2023-02-08T06:07:19.275Z,12.50
2023-02-08T06:09:48.223Z,10.20
2023-02-08T06:12:15.168Z,9.60
2023-02-08T06:14:42.013Z,10.50
2023-02-08T06:19:35.188Z,7.40
2023-02-08T06:22:01.789Z,6.90
2023-02-08T06:24:28.410Z,9.00
2023-02-08T06:26:55.204Z,8.30
2023-02-08T06:29:21.948Z,6.40
2023-02-08T06:31:48.730Z,8.90
2023-02-08T06:34:15.531Z,9.20
2023-02-08T06:36:42.170Z,7.80
2023-02-08T06:39:08.805Z,7.30
2023-02-08T06:41:36.234Z,10.40
2023-02-08T06:44:02.897Z,9.10
2023-02-08T06:46:29.790Z,7.10
2023-02-08T06:51:24.877Z,6.50
2023-02-08T06:53:51.607Z,9.60
2023-02-08T06:56:18.428Z,10.00
2023-02-08T06:58:45.149Z,10.60
2023-02-08T07:01:15.532Z,11.10
2023-02-08T07:03:42.339Z,9.10
2023-02-08T07:06:13.931Z,8.70
2023-02-08T07:08:41.382Z,10.80
2023-02-08T07:11:10.757Z,7.90
2023-02-08T07:13:37.937Z,8.60
2023-02-08T07:16:06.560Z,15.40
2023-02-08T07:18:34.156Z,27.80
2023-02-08T07:21:01.278Z,26.30
2023-02-08T07:23:28.108Z,15.30
2023-02-08T07:26:02.285Z,7.00
2023-02-08T07:28:29.841Z,9.50
2023-02-08T07:30:56.573Z,7.20
2023-02-08T07:33:24.590Z,10.50
2023-02-08T07:35:51.685Z,9.30
2023-02-08T07:38:20.709Z,9.80
2023-02-08T07:40:48.012Z,11.70
2023-02-08T07:43:14.665Z,11.80
2023-02-08T07:45:46.096Z,11.10
2023-02-08T07:48:12.733Z,8.50
2023-02-08T07:50:39.663Z,7.30
2023-02-08T07:53:06.575Z,8.60
2023-02-08T07:55:33.250Z,10.00
2023-02-08T07:57:59.995Z,12.90
2023-02-08T08:00:27.081Z,18.30
2023-02-08T08:02:54.259Z,31.40
2023-02-08T08:05:21.719Z,12.80
2023-02-08T08:07:48.498Z,12.60
2023-02-08T08:10:15.241Z,7.60
2023-02-08T08:12:41.841Z,9.60
2023-02-08T08:15:08.752Z,10.40
2023-02-08T08:17:35.380Z,29.90
2023-02-08T08:20:02.094Z,25.60
2023-02-08T08:22:28.733Z,15.80
2023-02-08T08:24:55.443Z,14.70
2023-02-08T08:27:22.054Z,18.90
2023-02-08T08:29:48.753Z,12.40
2023-02-08T08:32:15.364Z,11.60
2023-02-08T08:34:42.231Z,11.00
2023-02-08T08:37:09.653Z,11.30
2023-02-08T08:39:37.279Z,14.10
2023-02-08T08:42:04.339Z,13.20
2023-02-08T08:44:31.344Z,12.00
2023-02-08T08:46:59.402Z,14.70
2023-02-08T08:49:28.045Z,13.30
2023-02-08T08:51:55.539Z,11.20
2023-02-08T08:54:22.719Z,13.50
2023-02-08T08:56:49.801Z,11.30
2023-02-08T08:59:16.762Z,17.00
2023-02-08T09:04:10.973Z,17.20
2023-02-08T09:06:38.087Z,15.30
2023-02-08T09:09:05.236Z,13.70
2023-02-08T09:11:33.368Z,13.30
2023-02-08T09:14:04.409Z,13.70
2023-02-08T09:16:32.188Z,14.80
2023-02-08T09:19:06.204Z,12.80
2023-02-08T09:21:34.141Z,14.80
2023-02-08T09:24:02.284Z,13.50
2023-02-08T09:26:29.258Z,12.60
2023-02-08T09:28:56.068Z,13.00
2023-02-08T09:33:52.436Z,11.50
2023-02-08T09:36:20.844Z,13.40
2023-02-08T09:38:49.315Z,14.70
2023-02-08T09:41:33.580Z,11.60
2023-02-08T09:44:00.145Z,14.20
2023-02-08T09:46:30.346Z,13.00
2023-02-08T09:49:01.948Z,13.10
2023-02-08T09:51:36.583Z,12.40
2023-02-08T09:54:09.608Z,11.00
2023-02-08T09:56:41.063Z,14.60
2023-02-08T09:59:16.524Z,14.20
2023-02-08T10:01:43.365Z,11.20
2023-02-08T10:04:24.219Z,13.80
2023-02-08T10:06:50.937Z,13.30
2023-02-08T10:09:22.493Z,14.70
2023-02-08T10:12:26.617Z,13.00
2023-02-08T10:15:14.298Z,16.00
2023-02-08T10:17:58.794Z,17.90
2023-02-08T10:20:46.290Z,15.30
2023-02-08T10:23:25.067Z,13.30
2023-02-08T10:29:05.408Z,9.20
2023-02-08T10:31:47.204Z,11.80
2023-02-08T10:34:45.832Z,15.50
2023-02-08T10:37:20.048Z,13.80
2023-02-08T10:39:49.678Z,13.30
2023-02-08T10:42:19.528Z,15.20
2023-02-08T10:45:24.256Z,15.00
2023-02-08T10:48:04.019Z,16.70
2023-02-08T10:50:47.738Z,15.60
2023-02-08T10:53:16.920Z,14.20
2023-02-08T10:55:46.207Z,15.70
2023-02-08T10:58:21.509Z,16.10
2023-02-08T11:00:49.762Z,14.20
2023-02-08T11:03:23.112Z,11.80
2023-02-08T11:05:51.388Z,13.70
2023-02-08T11:08:23.947Z,14.50
2023-02-08T11:10:59.860Z,14.10
2023-02-08T11:13:36.849Z,15.00
2023-02-08T11:16:06.452Z,17.80
2023-02-08T11:18:33.140Z,15.40
2023-02-08T11:21:05.758Z,13.70
2023-02-08T11:23:36.036Z,16.90
2023-02-08T11:26:21.022Z,15.80
2023-02-08T11:29:19.234Z,14.30
2023-02-08T11:31:55.081Z,13.70
2023-02-08T11:34:27.881Z,15.50
2023-02-08T11:36:55.427Z,15.50
2023-02-08T11:39:27.830Z,13.40
2023-02-08T11:41:59.265Z,15.10
2023-02-08T11:44:33.738Z,14.60
2023-02-08T11:47:04.413Z,13.00
2023-02-08T11:49:43.214Z,15.70
2023-02-08T11:54:47.711Z,14.90
2023-02-08T11:57:23.049Z,14.40
2023-02-08T11:59:51.882Z,15.20
2023-02-08T12:02:39.269Z,13.20
2023-02-08T12:05:18.748Z,12.90
2023-02-08T12:08:13.605Z,13.70
2023-02-08T12:10:55.687Z,12.40
2023-02-08T12:13:56.760Z,12.70
2023-02-08T12:16:51.124Z,13.30
2023-02-08T12:19:38.960Z,11.40
2023-02-08T12:22:16.094Z,12.90
2023-02-08T12:25:01.723Z,14.50
2023-02-08T12:27:31.599Z,14.00
2023-02-08T12:30:22.870Z,14.90
2023-02-08T12:33:11.235Z,18.00
2023-02-08T12:36:05.756Z,16.00
2023-02-08T12:39:18.552Z,12.70
2023-02-08T12:42:08.645Z,14.00
2023-02-08T12:44:51.516Z,17.10
2023-02-08T12:47:31.281Z,19.10
2023-02-08T12:50:17.310Z,15.70
2023-02-08T12:52:52.824Z,17.20
2023-02-08T12:55:37.190Z,18.50
2023-02-08T12:58:25.709Z,31.90
2023-02-08T13:00:55.291Z,46.50
2023-02-08T13:03:32.103Z,31.10
2023-02-08T13:06:02.533Z,40.90
2023-02-08T13:08:52.150Z,34.70
2023-02-08T13:11:30.352Z,32.70
2023-02-08T13:14:14.095Z,28.80
2023-02-08T13:16:52.306Z,23.20
2023-02-08T13:19:59.599Z,23.10
2023-02-08T13:22:31.878Z,19.80
2023-02-08T13:25:08.559Z,15.10
2023-02-08T13:27:35.984Z,13.40
2023-02-08T13:30:03.969Z,14.60
2023-02-08T13:32:38.990Z,11.50
2023-02-08T13:35:20.485Z,18.40
2023-02-08T13:37:52.994Z,12.40
2023-02-08T13:40:31.395Z,12.60
2023-02-08T13:43:03.762Z,9.70
2023-02-08T13:45:38.079Z,12.60
2023-02-08T13:48:08.221Z,10.10
2023-02-08T13:50:34.863Z,9.60
2023-02-08T13:53:02.655Z,11.10
2023-02-08T13:55:33.428Z,12.70
2023-02-08T13:58:24.234Z,13.80
2023-02-08T14:00:53.807Z,8.80
2023-02-08T14:03:27.654Z,14.30
2023-02-08T14:06:06.504Z,12.60
2023-02-08T14:08:42.741Z,11.90
2023-02-08T14:11:16.254Z,6.40
2023-02-08T14:13:53.331Z,11.50
2023-02-08T14:16:38.837Z,14.80
2023-02-08T14:19:22.708Z,13.50
2023-02-08T14:22:06.104Z,14.10
2023-02-08T14:24:48.195Z,15.50
2023-02-08T14:27:22.785Z,12.50
2023-02-08T14:30:02.914Z,11.70
2023-02-08T14:32:33.810Z,14.50
2023-02-08T14:35:19.162Z,17.20
2023-02-08T14:37:45.776Z,7.80
2023-02-08T14:40:24.712Z,16.80
2023-02-08T14:42:54.489Z,11.40
2023-02-08T14:45:36.441Z,14.80
2023-02-08T14:48:43.937Z,15.10
2023-02-08T14:51:11.844Z,13.90
2023-02-08T14:53:52.589Z,16.00
2023-02-08T14:56:24.360Z,13.30
2023-02-08T14:59:05.653Z,12.20
2023-02-08T15:01:56.429Z,16.30
2023-02-08T15:04:23.927Z,17.10
2023-02-08T15:07:03.376Z,13.30
2023-02-08T15:09:33.621Z,14.90
2023-02-08T15:12:00.196Z,12.80
2023-02-08T15:14:28.764Z,13.40
2023-02-08T15:16:56.537Z,13.80
2023-02-08T15:19:28.152Z,15.30
2023-02-08T15:21:55.201Z,17.10
2023-02-08T15:24:29.064Z,13.70
2023-02-08T15:26:58.165Z,13.10
2023-02-08T15:29:42.841Z,13.00
2023-02-08T15:32:16.585Z,12.50
2023-02-08T15:34:45.229Z,15.40
2023-02-08T15:37:19.259Z,19.00
2023-02-08T15:39:50.769Z,15.10
2023-02-08T15:42:23.535Z,16.30
2023-02-08T15:44:51.224Z,12.40
2023-02-08T15:47:39.966Z,12.80
2023-02-08T15:50:08.540Z,18.30
2023-02-08T15:52:37.173Z,15.00
2023-02-08T15:55:07.843Z,15.90
2023-02-08T15:57:54.523Z,12.10
2023-02-08T16:00:26.023Z,16.60
2023-02-08T16:02:56.199Z,15.30
2023-02-08T16:05:26.745Z,10.00
2023-02-08T16:07:54.286Z,12.70
2023-02-08T16:10:25.894Z,16.20
2023-02-08T16:13:01.454Z,14.00
2023-02-08T16:15:41.793Z,14.00
2023-02-08T16:18:30.411Z,12.20
2023-02-08T16:20:59.206Z,12.90
2023-02-08T16:23:29.998Z,11.70
2023-02-08T16:25:58.773Z,8.40
2023-02-08T16:28:31.483Z,7.70
2023-02-08T16:31:01.882Z,10.90
2023-02-08T16:33:30.606Z,11.40
2023-02-08T16:36:02.079Z,9.80
2023-02-08T16:38:32.148Z,10.60
2023-02-08T16:41:12.523Z,14.30
2023-02-08T16:43:44.110Z,11.40
2023-02-08T16:46:10.866Z,7.40
2023-02-08T16:48:40.144Z,15.50
2023-02-08T16:51:12.538Z,14.20
2023-02-08T16:53:42.269Z,12.80
2023-02-08T16:56:11.380Z,12.80
2023-02-08T16:58:38.978Z,11.70
2023-02-08T17:01:06.380Z,8.30
2023-02-08T17:03:33.113Z,8.80
2023-02-08T17:08:27.051Z,10.80
2023-02-08T17:10:58.967Z,10.40
2023-02-08T17:13:28.775Z,10.80
2023-02-08T17:15:55.631Z,7.20
2023-02-08T17:18:22.721Z,5.90
2023-02-08T17:20:49.803Z,9.80
2023-02-08T17:23:16.784Z,8.20
2023-02-08T17:25:44.297Z,7.60
2023-02-08T17:28:19.583Z,11.20
2023-02-08T17:30:47.704Z,7.10
2023-02-08T17:33:20.809Z,12.00
2023-02-08T17:35:49.962Z,10.90
2023-02-08T17:38:18.014Z,9.80
2023-02-08T17:40:45.545Z,11.20
2023-02-08T17:43:13.434Z,13.40
2023-02-08T17:45:43.029Z,11.00
2023-02-08T17:48:10.121Z,11.70
2023-02-08T17:53:04.159Z,9.40
2023-02-08T17:55:31.398Z,13.90
2023-02-08T17:57:58.684Z,14.40
2023-02-08T18:00:26.297Z,11.60
2023-02-08T18:02:55.500Z,12.40
2023-02-08T18:05:25.620Z,10.30
2023-02-08T18:07:53.885Z,8.70
2023-02-08T18:10:21.380Z,8.30
2023-02-08T18:12:48.382Z,10.00
2023-02-08T18:15:20.004Z,9.80
2023-02-08T18:17:48.363Z,11.00
2023-02-08T18:20:16.503Z,10.30
2023-02-08T18:22:44.541Z,10.00
2023-02-08T18:25:13.167Z,9.50
2023-02-08T18:27:40.678Z,8.80
2023-02-08T18:30:08.547Z,12.30
2023-02-08T18:32:35.311Z,8.50
2023-02-08T18:35:04.003Z,6.50
2023-02-08T18:37:31.920Z,8.30
2023-02-08T18:39:59.335Z,6.70
2023-02-08T18:42:26.136Z,5.00
2023-02-08T18:47:19.511Z,5.80
2023-02-08T18:52:16.066Z,7.70
2023-02-08T18:54:42.871Z,8.30
2023-02-08T18:57:10.842Z,5.70
2023-02-08T18:59:38.651Z,6.80
2023-02-08T19:02:07.348Z,8.30
2023-02-08T19:04:38.856Z,7.40
2023-02-08T19:07:06.902Z,6.20
2023-02-08T19:09:37.855Z,7.20
2023-02-08T19:12:05.764Z,6.40
2023-02-08T19:14:32.706Z,4.80
2023-02-08T19:16:59.815Z,8.70
2023-02-08T19:19:26.822Z,5.10
2023-02-08T19:21:53.676Z,6.90
2023-02-08T19:24:20.498Z,6.40
2023-02-08T19:29:16.797Z,4.50
2023-02-08T19:31:44.788Z,6.50
2023-02-08T19:34:12.540Z,3.60
2023-02-08T19:36:46.480Z,9.00
2023-02-08T19:39:16.899Z,7.90
2023-02-08T19:41:45.521Z,10.30
2023-02-08T19:44:15.580Z,6.70
2023-02-08T19:46:44.785Z,7.60
2023-02-08T19:49:13.051Z,6.80
2023-02-08T19:51:40.358Z,5.90
2023-02-08T19:54:10.343Z,6.50
2023-02-08T19:56:37.236Z,6.30
2023-02-08T20:01:33.658Z,6.90
2023-02-08T20:04:00.505Z,6.20
2023-02-08T20:09:00.594Z,7.90
2023-02-08T20:11:31.274Z,8.30
2023-02-08T20:14:00.881Z,9.30
2023-02-08T20:16:31.574Z,10.50
2023-02-08T20:18:58.623Z,6.20
2023-02-08T20:23:52.903Z,5.70
2023-02-08T20:26:28.310Z,7.60
2023-02-08T20:28:57.858Z,7.20
2023-02-08T20:31:30.629Z,4.90
2023-02-08T20:34:03.377Z,7.60
2023-02-08T20:36:33.256Z,5.90
2023-02-08T20:39:00.306Z,6.70
2023-02-08T20:41:31.184Z,5.70
2023-02-08T20:43:57.874Z,10.20
2023-02-08T20:46:27.787Z,6.80
2023-02-08T20:48:56.244Z,8.80
2023-02-08T20:51:25.828Z,11.40
2023-02-08T20:53:53.696Z,7.20
2023-02-08T20:56:23.857Z,9.80
2023-02-08T20:58:51.292Z,11.20
2023-02-08T21:01:24.238Z,9.00
2023-02-08T21:03:54.124Z,7.80
2023-02-08T21:06:32.552Z,9.70
2023-02-08T21:09:04.526Z,8.30
2023-02-08T21:11:32.398Z,8.60
2023-02-08T21:13:59.973Z,11.00
2023-02-08T21:16:28.051Z,10.20
2023-02-08T21:18:57.179Z,10.50
2023-02-08T21:21:24.811Z,9.40
2023-02-08T21:23:51.680Z,8.30
2023-02-08T21:26:20.918Z,10.60
2023-02-08T21:28:47.920Z,6.90
2023-02-08T21:31:18.176Z,5.50
2023-02-08T21:33:45.257Z,10.60
2023-02-08T21:36:15.322Z,9.10
2023-02-08T21:38:42.866Z,3.10
2023-02-08T21:41:15.369Z,8.00
2023-02-08T21:43:42.893Z,10.20
2023-02-08T21:46:10.280Z,9.30
2023-02-08T21:48:55.382Z,11.00
2023-02-08T21:51:42.109Z,7.20
2023-02-08T21:54:36.953Z,8.30
2023-02-08T21:57:06.614Z,12.60
2023-02-08T21:59:37.925Z,5.30
2023-02-08T22:02:06.988Z,9.00
2023-02-08T22:04:36.056Z,4.50
2023-02-08T22:07:04.686Z,6.50
2023-02-08T22:09:31.592Z,6.20
2023-02-08T22:14:25.729Z,7.00
2023-02-08T22:19:19.242Z,6.20
2023-02-08T22:21:45.999Z,5.20
2023-02-08T22:24:12.657Z,5.10
2023-02-08T22:26:39.401Z,7.60
2023-02-08T22:29:06.030Z,5.30
2023-02-08T22:31:32.912Z,3.90
2023-02-08T22:33:59.773Z,6.00
2023-02-08T22:36:26.399Z,5.50
2023-02-08T22:38:53.039Z,6.40
2023-02-08T22:41:19.710Z,2.90
2023-02-08T22:46:13.327Z,4.70
2023-02-08T22:48:40.882Z,6.80
2023-02-08T22:51:09.799Z,5.30
2023-02-08T22:53:36.536Z,5.20
2023-02-08T22:56:03.902Z,4.90
2023-02-08T22:58:30.749Z,3.90
2023-02-08T23:03:24.643Z,4.30
2023-02-08T23:05:52.264Z,6.90
2023-02-08T23:08:21.229Z,7.20
2023-02-08T23:10:48.183Z,3.40
2023-02-08T23:13:14.938Z,4.70
2023-02-08T23:15:43.839Z,2.80
2023-02-08T23:18:10.630Z,5.60
2023-02-08T23:20:39.865Z,4.50
2023-02-08T23:23:07.381Z,7.50
2023-02-08T23:25:34.347Z,6.30
2023-02-08T23:28:01.100Z,5.00
2023-02-08T23:30:27.847Z,6.80
2023-02-08T23:32:54.622Z,7.40
2023-02-08T23:35:21.249Z,5.20
2023-02-08T23:37:47.939Z,3.90
2023-02-08T23:40:14.745Z,4.70
2023-02-08T23:45:08.475Z,5.80
2023-02-08T23:47:35.585Z,6.20
2023-02-08T23:50:02.207Z,6.20
2023-02-08T23:52:29.084Z,2.20
2023-02-08T23:57:22.424Z,4.90
2023-02-08T23:59:49.054Z,5.80
